Time;durP1;ratioP1;P1;durP2;ratioP2;P2;SDS_P1;SDS_P2;PMS_P1;PMS_P2;Temp;Humidity;BMP_temperature;BMP_pressure;BME280_temperature;BME280_humidity;BME280_pressure;Samples;Min_cycle;Max_cycle;Signal;HPM_P1;HPM_P2
2022/08/05 00:01:43;;;;;;;;;;;27.70;49.80;;;;;;4948769;29;20010;-96
2022/08/05 00:04:17;;;;;;;;;;;27.60;49.50;;;;;;4947831;29;20374;-96
2022/08/05 00:06:44;;;;;;;;;;;27.50;48.50;;;;;;4963545;29;19943;-95
2022/08/05 00:09:18;;;;;;;;;;;27.50;48.10;;;;;;4949140;29;20256;-94
2022/08/05 00:11:47;;;;;;;;;;;27.40;47.70;;;;;;4928821;29;19922;-95
2022/08/05 00:14:14;;;;;;;;;;;27.30;47.40;;;;;;4946726;29;19915;-96
2022/08/05 00:16:49;;;;;;;;;;;27.20;47.10;;;;;;4947730;29;19966;-95
2022/08/05 00:19:45;;;;;;;;;;;27.20;47.00;;;;;;4945699;29;19918;-95
2022/08/05 00:22:12;;;;;;;;;;;27.20;46.90;;;;;;4948260;29;19923;-94
2022/08/05 00:24:43;;;;;;;;;;;27.10;46.70;;;;;;4946648;29;19922;-95
2022/08/05 00:27:27;;;;;;;;;;;27.10;46.70;;;;;;4945413;29;19933;-95
2022/08/05 00:29:56;;;;;;;;;;;27.10;46.60;;;;;;4927941;29;19915;-96
2022/08/05 00:32:40;;;;;;;;;;;27.10;46.80;;;;;;4946044;29;19922;-96
2022/08/05 00:35:13;;;;;;;;;;;26.90;48.10;;;;;;4947268;29;19923;-96
2022/08/05 00:37:47;;;;;;;;;;;26.70;49.00;;;;;;4963557;29;19934;-96
2022/08/05 00:40:21;;;;;;;;;;;26.50;49.70;;;;;;4965822;29;19925;-96
2022/08/05 00:42:58;;;;;;;;;;;26.30;50.30;;;;;;4961923;29;19915;-96
2022/08/05 00:45:33;;;;;;;;;;;26.30;50.60;;;;;;4943494;29;19915;-96
2022/08/05 00:48:02;;;;;;;;;;;26.20;50.90;;;;;;4930566;29;19963;-96
2022/08/05 00:50:28;;;;;;;;;;;26.10;51.10;;;;;;4962630;29;19962;-96
2022/08/05 00:52:56;;;;;;;;;;;26.10;51.30;;;;;;4964356;29;19942;-96
2022/08/05 00:55:23;;;;;;;;;;;26.10;51.50;;;;;;4946606;29;19954;-95
2022/08/05 00:57:58;;;;;;;;;;;26.10;51.50;;;;;;4964935;29;19938;-96
2022/08/05 01:00:41;;;;;;;;;;;26.00;51.60;;;;;;4954871;29;19918;-96
2022/08/05 01:03:23;;;;;;;;;;;26.10;51.80;;;;;;4952557;29;19914;-96
2022/08/05 01:06:26;;;;;;;;;;;;;;;;;;;;;
2022/08/05 01:11:32;;;;;;;;;;;25.10;58.00;;;;;;4971898;23;19946;-90
2022/08/05 01:14:03;;;;;;;;;;;24.80;59.20;;;;;;4975021;28;19922;-91
2022/08/05 01:16:35;;;;;;;;;;;24.60;60.30;;;;;;4979800;28;19925;-90
2022/08/05 01:19:07;;;;;;;;;;;24.50;61.30;;;;;;4966541;28;19959;-92
2022/08/05 01:21:50;;;;;;;;;;;24.40;61.90;;;;;;4955618;29;19965;-91
2022/08/05 01:24:39;;;;;;;;;;;24.40;62.30;;;;;;4957725;28;19918;-91
2022/08/05 01:27:23;;;;;;;;;;;24.40;62.70;;;;;;4952346;28;20309;-90
2022/08/05 01:29:51;;;;;;;;;;;24.40;63.00;;;;;;4954788;29;19919;-91
2022/08/05 01:32:19;;;;;;;;;;;24.50;63.30;;;;;;4957730;29;19922;-92
2022/08/05 01:37:43;;;;;;;;;;;24.50;63.60;;;;;;5026612;23;19926;-90
2022/08/05 01:40:10;;;;;;;;;;;24.50;63.80;;;;;;4970697;28;20311;-90
2022/08/05 01:42:37;;;;;;;;;;;24.50;64.00;;;;;;4959810;28;19911;-92
2022/08/05 01:45:04;;;;;;;;;;;24.50;64.00;;;;;;4957033;28;20327;-92
2022/08/05 01:47:33;;;;;;;;;;;24.50;64.20;;;;;;4957842;28;20416;-91
2022/08/05 01:50:01;;;;;;;;;;;24.50;64.20;;;;;;4974212;28;19929;-91
2022/08/05 01:52:29;;;;;;;;;;;24.50;64.30;;;;;;4975153;28;19969;-91
2022/08/05 01:54:59;;;;;;;;;;;24.60;64.40;;;;;;4956300;28;19974;-91
2022/08/05 01:57:29;;;;;;;;;;;24.50;64.40;;;;;;4955736;28;20009;-91
2022/08/05 02:00:00;;;;;;;;;;;24.50;64.40;;;;;;4976140;28;19911;-91
2022/08/05 02:02:30;;;;;;;;;;;24.50;64.50;;;;;;4976292;28;19980;-92
2022/08/05 02:04:58;;;;;;;;;;;24.60;64.60;;;;;;4970146;28;19911;-91
2022/08/05 02:07:31;;;;;;;;;;;24.60;64.70;;;;;;4960911;28;19923;-91
2022/08/05 02:10:02;;;;;;;;;;;24.60;64.80;;;;;;4980751;28;20270;-92
2022/08/05 02:12:37;;;;;;;;;;;24.60;64.80;;;;;;4979164;28;19918;-92
2022/08/05 02:15:23;;;;;;;;;;;24.70;64.80;;;;;;4977560;28;19918;-91
2022/08/05 02:17:52;;;;;;;;;;;24.70;64.90;;;;;;4984326;28;19918;-91
2022/08/05 02:20:31;;;;;;;;;;;24.70;65.00;;;;;;4978202;28;19922;-91
2022/08/05 02:33:01;;;;;;;;;;;24.70;64.70;;;;;;5164278;23;19926;-92
2022/08/05 02:35:27;;;;;;;;;;;24.70;64.60;;;;;;4979237;28;19930;-89
2022/08/05 02:38:04;;;;;;;;;;;24.70;64.60;;;;;;5057364;23;20486;-90
2022/08/05 02:40:40;;;;;;;;;;;24.70;64.70;;;;;;5068517;23;20381;-90
2022/08/05 02:43:17;;;;;;;;;;;24.70;64.60;;;;;;4966888;28;20002;-92
2022/08/05 02:45:51;;;;;;;;;;;24.70;64.50;;;;;;5545998;23;19926;-91
2022/08/05 03:01:59;;;;;;;;;;;24.40;64.70;;;;;;4815218;23;19915;-91
2022/08/05 03:25:15;;;;;;;;;;;24.00;64.70;;;;;;5147031;23;19927;-89
2022/08/05 03:35:29;;;;;;;;;;;23.90;64.80;;;;;;4904704;23;19937;-90
2022/08/05 03:37:56;;;;;;;;;;;23.80;64.90;;;;;;5153459;23;19927;-90
2022/08/05 03:50:49;;;;;;;;;;;23.90;65.00;;;;;;4828226;23;20051;-93
2022/08/05 03:53:24;;;;;;;;;;;24.00;64.80;;;;;;4913584;29;19978;-92
2022/08/05 03:58:46;;;;;;;;;;;23.90;64.80;;;;;;5109432;23;20022;-91
2022/08/05 04:01:33;;;;;;;;;;;24.00;64.70;;;;;;4883002;29;19915;-90
2022/08/05 04:34:47;;;;;;;;;;;24.20;65.00;;;;;;5031499;23;19934;-93
2022/08/05 04:39:57;;;;;;;;;;;24.20;64.90;;;;;;4873603;23;19927;-90
2022/08/05 04:42:23;;;;;;;;;;;24.10;64.90;;;;;;4913817;29;19959;-90
2022/08/05 04:44:48;;;;;;;;;;;24.00;65.10;;;;;;4900464;29;19920;-89
2022/08/05 04:47:14;;;;;;;;;;;24.00;65.10;;;;;;4900928;29;19912;-88
2022/08/05 04:49:39;;;;;;;;;;;23.90;65.10;;;;;;4899376;29;19923;-89
2022/08/05 04:52:05;;;;;;;;;;;23.80;65.30;;;;;;4902270;29;19912;-88
2022/08/05 04:54:31;;;;;;;;;;;23.70;65.60;;;;;;4902178;29;19952;-89
2022/08/05 04:56:56;;;;;;;;;;;23.70;66.00;;;;;;4910912;29;19919;-88
2022/08/05 04:59:22;;;;;;;;;;;23.70;66.20;;;;;;4912730;29;19920;-88
2022/08/05 05:01:48;;;;;;;;;;;23.60;66.20;;;;;;4913340;29;19895;-89
2022/08/05 05:04:13;;;;;;;;;;;23.50;66.50;;;;;;4914747;29;19919;-88
2022/08/05 05:06:39;;;;;;;;;;;23.50;66.50;;;;;;4888796;29;19920;-88
2022/08/05 05:09:05;;;;;;;;;;;23.50;66.60;;;;;;4889007;29;19963;-91
2022/08/05 05:11:30;;;;;;;;;;;23.50;66.60;;;;;;4889023;29;19916;-91
2022/08/05 05:13:55;;;;;;;;;;;23.50;66.80;;;;;;4891803;29;20011;-88
2022/08/05 05:16:21;;;;;;;;;;;23.50;67.00;;;;;;4891204;29;20006;-89
2022/08/05 05:18:47;;;;;;;;;;;23.50;67.00;;;;;;4888269;29;19923;-90
2022/08/05 05:21:12;;;;;;;;;;;23.60;67.10;;;;;;4889501;29;19923;-90
2022/08/05 05:23:37;;;;;;;;;;;23.60;67.10;;;;;;4897874;29;19916;-88
2022/08/05 05:26:03;;;;;;;;;;;23.60;67.00;;;;;;4923609;29;19915;-88
2022/08/05 05:28:28;;;;;;;;;;;23.50;67.10;;;;;;4903844;29;19998;-88
2022/08/05 05:30:54;;;;;;;;;;;23.50;67.20;;;;;;4885179;29;19975;-88
2022/08/05 05:33:19;;;;;;;;;;;23.50;67.10;;;;;;4893140;29;19916;-89
2022/08/05 05:35:45;;;;;;;;;;;23.40;66.90;;;;;;4902928;29;20261;-90
2022/08/05 05:38:11;;;;;;;;;;;23.50;66.70;;;;;;4885760;29;19916;-90
2022/08/05 05:40:36;;;;;;;;;;;23.40;66.90;;;;;;4923419;29;20324;-90
2022/08/05 05:43:02;;;;;;;;;;;23.40;67.00;;;;;;4911895;29;19912;-90
2022/08/05 05:45:28;;;;;;;;;;;23.40;67.20;;;;;;4894094;29;20344;-89
2022/08/05 05:47:53;;;;;;;;;;;23.40;67.00;;;;;;4917726;29;19922;-89
2022/08/05 05:50:19;;;;;;;;;;;23.40;66.90;;;;;;4910599;29;19923;-88
2022/08/05 05:52:45;;;;;;;;;;;23.40;67.20;;;;;;4943668;29;19921;-90
2022/08/05 05:55:12;;;;;;;;;;;23.40;67.40;;;;;;4921162;29;19931;-90
2022/08/05 05:57:39;;;;;;;;;;;23.50;67.40;;;;;;4932036;29;20486;-90
2022/08/05 06:00:06;;;;;;;;;;;23.50;67.30;;;;;;4948465;29;19926;-90
2022/08/05 06:02:32;;;;;;;;;;;23.60;67.40;;;;;;4934025;29;19915;-89
2022/08/05 06:04:57;;;;;;;;;;;23.70;67.40;;;;;;4935663;29;19923;-91
2022/08/05 06:07:23;;;;;;;;;;;23.80;67.20;;;;;;4947626;29;19911;-89
2022/08/05 06:09:48;;;;;;;;;;;23.80;66.80;;;;;;4948288;29;19926;-89
2022/08/05 06:12:14;;;;;;;;;;;23.80;66.50;;;;;;4945026;29;19950;-90
2022/08/05 06:14:45;;;;;;;;;;;23.80;66.50;;;;;;4917921;29;19966;-91
2022/08/05 06:17:11;;;;;;;;;;;23.70;66.50;;;;;;4930856;29;19916;-90
2022/08/05 06:19:36;;;;;;;;;;;23.70;66.70;;;;;;4909624;29;20579;-88
2022/08/05 06:22:02;;;;;;;;;;;23.60;66.70;;;;;;4908953;29;19915;-89
2022/08/05 06:24:28;;;;;;;;;;;23.60;66.80;;;;;;4894549;29;19926;-91
2022/08/05 06:26:53;;;;;;;;;;;23.50;66.90;;;;;;4913000;29;19939;-90
2022/08/05 06:29:19;;;;;;;;;;;23.50;66.90;;;;;;4909180;29;19962;-89
2022/08/05 06:31:45;;;;;;;;;;;23.50;66.90;;;;;;4926911;29;19907;-89
2022/08/05 06:34:10;;;;;;;;;;;23.50;66.70;;;;;;4917145;29;19998;-91
2022/08/05 06:36:36;;;;;;;;;;;23.50;66.90;;;;;;4904867;29;19918;-91
2022/08/05 06:39:02;;;;;;;;;;;23.50;66.80;;;;;;4905751;29;20391;-90
2022/08/05 06:41:27;;;;;;;;;;;23.40;66.80;;;;;;4910151;29;20364;-89
2022/08/05 06:43:53;;;;;;;;;;;23.40;66.80;;;;;;4905781;29;19936;-89
2022/08/05 06:46:19;;;;;;;;;;;23.40;66.90;;;;;;4915017;29;19911;-90
2022/08/05 06:48:44;;;;;;;;;;;23.40;66.90;;;;;;4923863;29;19919;-90
2022/08/05 06:51:10;;;;;;;;;;;23.50;66.90;;;;;;4932106;29;19986;-91
2022/08/05 06:53:39;;;;;;;;;;;23.50;67.00;;;;;;4930113;29;20054;-89
2022/08/05 06:56:04;;;;;;;;;;;23.60;67.00;;;;;;4928047;29;19918;-91
2022/08/05 06:58:31;;;;;;;;;;;23.70;67.00;;;;;;4912386;29;19919;-89
2022/08/05 07:01:00;;;;;;;;;;;23.80;66.80;;;;;;4915820;29;19951;-90
2022/08/05 07:03:33;;;;;;;;;;;23.90;67.00;;;;;;4916115;29;19934;-90
2022/08/05 07:06:00;;;;;;;;;;;24.00;67.10;;;;;;4915979;29;19918;-91
2022/08/05 07:08:27;;;;;;;;;;;24.20;67.00;;;;;;4918524;29;19987;-92
2022/08/05 07:10:53;;;;;;;;;;;24.20;66.60;;;;;;4907201;29;19920;-91
2022/08/05 07:18:47;;;;;;;;;;;24.40;66.90;;;;;;4891697;29;19931;-90
2022/08/05 07:21:13;;;;;;;;;;;24.40;66.50;;;;;;4877865;29;19975;-89
2022/08/05 07:23:38;;;;;;;;;;;24.40;66.50;;;;;;4888922;29;19920;-90
2022/08/05 07:26:04;;;;;;;;;;;24.40;66.30;;;;;;4916454;29;19987;-92
2022/08/05 07:28:30;;;;;;;;;;;24.40;66.10;;;;;;4916838;29;19920;-92
2022/08/05 07:30:55;;;;;;;;;;;24.50;66.30;;;;;;4902102;29;19911;-92
2022/08/05 07:33:21;;;;;;;;;;;24.50;66.40;;;;;;4920251;29;19939;-93
2022/08/05 07:35:47;;;;;;;;;;;24.60;66.20;;;;;;4927534;29;19916;-93
2022/08/05 07:38:16;;;;;;;;;;;24.60;66.00;;;;;;4903475;29;20279;-92
2022/08/05 07:40:42;;;;;;;;;;;24.70;65.80;;;;;;4904985;29;20033;-92
2022/08/05 07:43:08;;;;;;;;;;;24.70;66.10;;;;;;4902864;29;19971;-89
2022/08/05 07:45:34;;;;;;;;;;;24.70;66.10;;;;;;4918126;29;19915;-92
2022/08/05 07:48:00;;;;;;;;;;;24.70;65.90;;;;;;4915828;29;19919;-91
2022/08/05 07:50:26;;;;;;;;;;;24.70;65.70;;;;;;4899407;29;19954;-90
2022/08/05 07:52:51;;;;;;;;;;;24.70;65.80;;;;;;4902798;29;19919;-92
2022/08/05 07:55:17;;;;;;;;;;;24.70;65.30;;;;;;4901954;29;20367;-92
2022/08/05 07:57:42;;;;;;;;;;;24.70;65.10;;;;;;4902667;29;19919;-89
2022/08/05 08:00:08;;;;;;;;;;;24.60;65.40;;;;;;4913434;29;19916;-89
2022/08/05 08:02:35;;;;;;;;;;;24.60;65.50;;;;;;4922086;29;19915;-89
2022/08/05 08:05:00;;;;;;;;;;;24.50;65.40;;;;;;4883018;29;19924;-92
2022/08/05 08:07:26;;;;;;;;;;;24.50;65.50;;;;;;4882925;29;20299;-91
2022/08/05 08:09:52;;;;;;;;;;;24.50;65.60;;;;;;4900011;29;19926;-92
2022/08/05 08:12:17;;;;;;;;;;;24.60;65.90;;;;;;4913141;29;19916;-89
2022/08/05 08:14:44;;;;;;;;;;;24.60;65.70;;;;;;4884421;29;19928;-89
2022/08/05 08:17:09;;;;;;;;;;;24.60;65.70;;;;;;4881995;29;19927;-92
2022/08/05 08:19:41;;;;;;;;;;;24.60;65.80;;;;;;4897700;29;19944;-89
2022/08/05 08:22:07;;;;;;;;;;;24.70;65.70;;;;;;4922539;29;19939;-92
2022/08/05 08:24:33;;;;;;;;;;;24.70;65.50;;;;;;4901364;29;19920;-89
2022/08/05 08:26:59;;;;;;;;;;;24.70;65.40;;;;;;4884669;29;19963;-89
2022/08/05 08:29:25;;;;;;;;;;;24.80;65.30;;;;;;4892571;29;20002;-90
2022/08/05 08:31:52;;;;;;;;;;;24.80;65.10;;;;;;4910656;29;19931;-89
2022/08/05 08:34:18;;;;;;;;;;;24.80;64.50;;;;;;4908624;29;19911;-92
2022/08/05 08:36:43;;;;;;;;;;;24.80;64.60;;;;;;4907521;29;20010;-91
2022/08/05 08:39:09;;;;;;;;;;;24.80;64.40;;;;;;4903662;29;20440;-88
2022/08/05 08:41:36;;;;;;;;;;;24.80;64.60;;;;;;4911768;29;19959;-89
2022/08/05 08:44:02;;;;;;;;;;;24.80;64.90;;;;;;4918712;29;19974;-88
2022/08/05 08:46:29;;;;;;;;;;;24.80;64.90;;;;;;4902820;29;20003;-91
2022/08/05 08:48:55;;;;;;;;;;;24.80;64.90;;;;;;4884991;29;20345;-88
2022/08/05 08:51:22;;;;;;;;;;;24.80;64.90;;;;;;4917058;29;20435;-90
2022/08/05 08:53:48;;;;;;;;;;;24.80;65.00;;;;;;4925644;29;19912;-90
2022/08/05 08:56:16;;;;;;;;;;;24.80;64.60;;;;;;4907407;29;19944;-92
2022/08/05 08:58:41;;;;;;;;;;;24.80;64.40;;;;;;4909165;29;19931;-92
2022/08/05 09:01:07;;;;;;;;;;;24.70;64.20;;;;;;4903443;29;19919;-88
2022/08/05 09:03:34;;;;;;;;;;;24.50;65.20;;;;;;4891606;29;20030;-91
2022/08/05 09:05:59;;;;;;;;;;;24.20;65.00;;;;;;4887383;29;20493;-88
2022/08/05 09:08:25;;;;;;;;;;;23.90;65.10;;;;;;4878891;29;20252;-90
2022/08/05 09:10:50;;;;;;;;;;;23.70;65.60;;;;;;4886288;29;20059;-87
2022/08/05 09:13:16;;;;;;;;;;;23.50;65.30;;;;;;4879463;29;19951;-90
2022/08/05 09:15:42;;;;;;;;;;;23.30;65.20;;;;;;4887343;29;19923;-87
2022/08/05 09:18:08;;;;;;;;;;;23.20;66.10;;;;;;4885482;29;19968;-87
2022/08/05 09:20:34;;;;;;;;;;;23.20;66.40;;;;;;4887373;29;19919;-88
2022/08/05 09:23:10;;;;;;;;;;;23.20;66.70;;;;;;4913349;29;20328;-90
2022/08/05 09:25:37;;;;;;;;;;;23.30;66.70;;;;;;4918941;29;20008;-90
2022/08/05 09:28:10;;;;;;;;;;;23.30;67.00;;;;;;4900805;29;19915;-89
2022/08/05 09:30:35;;;;;;;;;;;23.40;66.90;;;;;;4902166;29;19923;-87
2022/08/05 09:33:01;;;;;;;;;;;23.60;66.90;;;;;;4890493;29;20003;-88
2022/08/05 09:35:27;;;;;;;;;;;23.80;67.10;;;;;;4895003;29;20682;-91
2022/08/05 09:37:53;;;;;;;;;;;23.90;66.90;;;;;;4885674;29;19912;-91
2022/08/05 09:40:29;;;;;;;;;;;24.00;66.70;;;;;;4892487;29;19949;-88
2022/08/05 09:42:55;;;;;;;;;;;24.20;66.50;;;;;;4887548;29;19915;-89
2022/08/05 09:45:32;;;;;;;;;;;24.20;66.40;;;;;;4902152;29;20763;-89
2022/08/05 09:47:58;;;;;;;;;;;24.40;66.30;;;;;;4908000;29;19924;-90
2022/08/05 09:50:34;;;;;;;;;;;24.40;66.30;;;;;;4890028;29;19923;-92
2022/08/05 09:53:00;;;;;;;;;;;24.50;66.20;;;;;;4922325;29;19927;-90
2022/08/05 09:55:25;;;;;;;;;;;24.60;66.40;;;;;;4905719;29;19935;-93
2022/08/05 09:57:51;;;;;;;;;;;24.70;66.40;;;;;;4902826;29;19916;-92
2022/08/05 10:00:17;;;;;;;;;;;24.80;66.40;;;;;;4889175;29;20348;-92
2022/08/05 10:02:48;;;;;;;;;;;25.00;66.30;;;;;;4891749;29;19912;-93
2022/08/05 10:05:14;;;;;;;;;;;25.00;66.00;;;;;;4890162;29;19930;-91
2022/08/05 10:07:54;;;;;;;;;;;25.10;65.80;;;;;;4922208;29;20029;-89
2022/08/05 10:10:21;;;;;;;;;;;25.10;65.80;;;;;;4918236;29;20311;-91
2022/08/05 10:12:54;;;;;;;;;;;25.10;65.70;;;;;;4909358;29;19926;-89
2022/08/05 10:15:22;;;;;;;;;;;25.00;65.50;;;;;;4908695;29;19943;-89
2022/08/05 10:18:03;;;;;;;;;;;25.00;65.80;;;;;;4920030;29;20001;-91
2022/08/05 10:20:30;;;;;;;;;;;25.00;65.50;;;;;;4905841;29;19954;-89
2022/08/05 10:22:56;;;;;;;;;;;24.80;65.10;;;;;;4925617;29;19942;-88
2022/08/05 10:25:22;;;;;;;;;;;24.60;64.80;;;;;;4929943;28;19929;-87
2022/08/05 10:27:48;;;;;;;;;;;24.30;64.70;;;;;;4899531;29;19963;-91
2022/08/05 10:30:21;;;;;;;;;;;24.10;65.10;;;;;;4917794;29;19954;-92
2022/08/05 10:32:49;;;;;;;;;;;23.90;65.10;;;;;;4931533;29;19915;-88
2022/08/05 10:35:15;;;;;;;;;;;23.70;65.20;;;;;;4925090;29;19935;-89
2022/08/05 10:37:40;;;;;;;;;;;23.70;65.80;;;;;;4920533;29;19916;-92
2022/08/05 10:40:09;;;;;;;;;;;23.70;66.40;;;;;;4909216;29;19924;-90
2022/08/05 10:42:37;;;;;;;;;;;23.70;66.80;;;;;;4909487;29;19920;-91
2022/08/05 10:45:13;;;;;;;;;;;23.80;67.00;;;;;;4910822;29;19994;-91
2022/08/05 10:48:09;;;;;;;;;;;;;;;;;;;;;
2022/08/05 10:50:54;;;;;;;;;;;23.90;67.00;;;;;;4914847;29;20006;-91
2022/08/05 10:53:35;;;;;;;;;;;24.10;67.00;;;;;;4905619;29;19983;-91
2022/08/05 10:56:11;;;;;;;;;;;24.10;66.70;;;;;;4905920;29;19927;-91
2022/08/05 10:58:48;;;;;;;;;;;24.20;66.90;;;;;;4911788;29;19951;-91
2022/08/05 11:01:55;;;;;;;;;;;24.30;67.00;;;;;;4912276;29;19919;-91
2022/08/05 11:10:40;;;;;;;;;;;24.20;66.40;;;;;;4868243;29;19917;-92
2022/08/05 11:13:08;;;;;;;;;;;24.10;66.60;;;;;;4903116;29;19923;-89
2022/08/05 11:15:54;;;;;;;;;;;24.10;66.60;;;;;;4915117;29;20288;-92
2022/08/05 11:18:27;;;;;;;;;;;24.00;66.90;;;;;;4908567;29;19920;-92
2022/08/05 11:20:53;;;;;;;;;;;24.10;66.90;;;;;;4935044;29;19918;-92
2022/08/05 11:23:30;;;;;;;;;;;24.00;67.00;;;;;;4928319;29;19919;-89
2022/08/05 11:26:01;;;;;;;;;;;24.10;67.20;;;;;;4915469;29;19947;-93
2022/08/05 11:28:29;;;;;;;;;;;24.10;67.20;;;;;;4894407;29;19930;-91
2022/08/05 11:31:05;;;;;;;;;;;;;;;;;;;;;
2022/08/05 11:33:38;;;;;;;;;;;24.20;67.50;;;;;;4932733;29;19950;-91
2022/08/05 11:36:08;;;;;;;;;;;24.30;67.60;;;;;;4931215;29;19900;-91
2022/08/05 11:39:04;;;;;;;;;;;24.50;67.90;;;;;;4924714;29;19927;-91
2022/08/05 11:44:49;;;;;;;;;;;24.80;67.40;;;;;;4950840;28;20437;-91
2022/08/05 11:47:14;;;;;;;;;;;24.90;67.10;;;;;;4961907;29;19961;-92
2022/08/05 11:49:40;;;;;;;;;;;25.10;67.20;;;;;;4964325;29;19930;-90
2022/08/05 11:52:06;;;;;;;;;;;25.20;67.30;;;;;;4940093;29;19991;-89
2022/08/05 11:54:33;;;;;;;;;;;25.30;67.30;;;;;;4926282;29;19911;-88
2022/08/05 11:57:00;;;;;;;;;;;25.50;67.00;;;;;;4936870;29;20001;-92
2022/08/05 11:59:28;;;;;;;;;;;25.70;67.00;;;;;;4946904;29;19933;-90
2022/08/05 12:02:01;;;;;;;;;;;25.90;67.10;;;;;;4945547;28;20299;-89
2022/08/05 12:04:28;;;;;;;;;;;26.10;66.80;;;;;;4945906;29;19919;-89
2022/08/05 12:06:54;;;;;;;;;;;26.20;66.50;;;;;;4954390;29;19910;-89
2022/08/05 12:09:22;;;;;;;;;;;26.30;66.40;;;;;;4944365;29;19921;-91
2022/08/05 12:11:48;;;;;;;;;;;26.40;66.30;;;;;;4956385;29;19910;-92
2022/08/05 12:14:13;;;;;;;;;;;26.50;66.30;;;;;;4943704;29;19923;-89
2022/08/05 12:16:40;;;;;;;;;;;26.60;66.40;;;;;;4956200;28;19922;-90
2022/08/05 12:19:11;;;;;;;;;;;26.70;65.60;;;;;;4950702;29;19918;-90
2022/08/05 12:21:41;;;;;;;;;;;26.90;65.00;;;;;;4948934;23;19938;-87
2022/08/05 12:24:13;;;;;;;;;;;27.00;64.90;;;;;;4899051;29;19919;-87
2022/08/05 12:26:39;;;;;;;;;;;27.00;65.30;;;;;;4909505;29;19922;-85
2022/08/05 12:29:12;;;;;;;;;;;27.20;65.10;;;;;;4935599;29;19954;-87
2022/08/05 12:31:39;;;;;;;;;;;27.40;64.90;;;;;;4903040;29;20065;-87
2022/08/05 12:34:05;;;;;;;;;;;27.50;65.10;;;;;;4931666;29;19927;-88
2022/08/05 12:36:31;;;;;;;;;;;27.70;65.10;;;;;;4908471;29;19938;-86
2022/08/05 12:38:57;;;;;;;;;;;27.80;64.90;;;;;;4933845;29;19923;-87
2022/08/05 12:41:28;;;;;;;;;;;27.90;65.10;;;;;;4930739;29;20093;-86
2022/08/05 12:43:55;;;;;;;;;;;27.90;65.40;;;;;;4916719;29;19919;-87
2022/08/05 12:46:25;;;;;;;;;;;28.00;65.40;;;;;;4898949;29;19927;-87
2022/08/05 12:48:57;;;;;;;;;;;28.10;65.30;;;;;;4919263;29;19942;-86
2022/08/05 12:51:23;;;;;;;;;;;28.20;65.30;;;;;;4913320;29;19947;-87
2022/08/05 12:53:48;;;;;;;;;;;28.30;65.60;;;;;;4914109;29;20332;-87
2022/08/05 12:56:22;;;;;;;;;;;28.30;65.10;;;;;;4917893;29;20042;-87
2022/08/05 12:59:06;;;;;;;;;;;28.40;65.20;;;;;;4935200;29;20050;-87
2022/08/05 13:01:31;;;;;;;;;;;28.50;65.50;;;;;;4913967;29;19923;-88
2022/08/05 13:03:57;;;;;;;;;;;28.70;65.80;;;;;;4896884;29;19919;-87
2022/08/05 13:06:24;;;;;;;;;;;29.10;66.10;;;;;;4899453;29;19922;-87
2022/08/05 13:08:50;;;;;;;;;;;29.50;66.00;;;;;;4934976;29;19921;-87
2022/08/05 13:11:16;;;;;;;;;;;29.80;65.60;;;;;;4944829;29;20005;-87
2022/08/05 13:13:41;;;;;;;;;;;30.00;64.60;;;;;;4935166;29;20430;-87
2022/08/05 13:16:14;;;;;;;;;;;30.10;64.30;;;;;;4930014;28;19923;-88
2022/08/05 13:18:49;;;;;;;;;;;30.20;63.50;;;;;;4956215;28;20009;-88
2022/08/05 13:21:15;;;;;;;;;;;30.30;63.00;;;;;;4943268;29;20037;-87
2022/08/05 13:23:40;;;;;;;;;;;30.40;63.40;;;;;;4954380;29;19914;-87
2022/08/05 13:26:06;;;;;;;;;;;30.60;63.50;;;;;;4954716;28;19978;-87
2022/08/05 13:28:31;;;;;;;;;;;31.00;63.90;;;;;;4974172;28;19914;-87
2022/08/05 13:30:57;;;;;;;;;;;31.40;62.50;;;;;;4959808;28;19922;-87
2022/08/05 13:33:22;;;;;;;;;;;31.60;61.20;;;;;;4945052;28;19921;-87
2022/08/05 13:35:48;;;;;;;;;;;31.60;60.90;;;;;;4968187;28;19926;-87
2022/08/05 13:38:13;;;;;;;;;;;31.70;61.80;;;;;;4970825;28;19921;-88
2022/08/05 13:40:45;;;;;;;;;;;31.80;62.60;;;;;;4958416;28;20596;-87
2022/08/05 13:43:10;;;;;;;;;;;31.90;62.80;;;;;;4935378;29;19923;-88
2022/08/05 13:45:36;;;;;;;;;;;32.00;63.10;;;;;;4944158;28;19929;-87
2022/08/05 13:48:01;;;;;;;;;;;32.10;62.90;;;;;;4966010;28;19914;-88
2022/08/05 13:50:29;;;;;;;;;;;32.20;62.70;;;;;;4965870;28;19929;-88
2022/08/05 13:52:55;;;;;;;;;;;32.30;61.10;;;;;;4954357;29;19914;-90
2022/08/05 13:55:20;;;;;;;;;;;32.40;61.70;;;;;;4957438;28;20048;-88
2022/08/05 13:57:46;;;;;;;;;;;32.50;61.30;;;;;;4963636;28;19968;-88
2022/08/05 14:00:14;;;;;;;;;;;32.60;61.70;;;;;;4973791;28;19922;-88
2022/08/05 14:02:40;;;;;;;;;;;32.70;62.00;;;;;;4957388;28;20371;-89
2022/08/05 14:05:14;;;;;;;;;;;32.80;61.30;;;;;;4941323;29;19923;-89
2022/08/05 14:07:41;;;;;;;;;;;32.80;61.80;;;;;;4941443;29;20548;-87
2022/08/05 14:10:06;;;;;;;;;;;32.80;61.10;;;;;;4958589;28;19925;-89
2022/08/05 14:12:32;;;;;;;;;;;32.60;61.30;;;;;;4926410;29;19918;-89
2022/08/05 14:14:58;;;;;;;;;;;32.40;61.60;;;;;;4940642;29;19915;-89
2022/08/05 14:17:25;;;;;;;;;;;32.30;61.20;;;;;;4939745;29;19911;-89
2022/08/05 14:19:51;;;;;;;;;;;32.10;61.00;;;;;;4923279;29;20279;-89
2022/08/05 14:22:17;;;;;;;;;;;32.00;61.30;;;;;;4923492;29;19911;-90
2022/08/05 14:24:42;;;;;;;;;;;32.10;62.10;;;;;;4907461;29;19915;-90
2022/08/05 14:27:08;;;;;;;;;;;32.30;62.50;;;;;;4940039;29;19918;-90
2022/08/05 14:29:34;;;;;;;;;;;32.40;61.80;;;;;;4940152;29;20028;-88
2022/08/05 14:31:59;;;;;;;;;;;32.40;61.00;;;;;;4940394;29;20007;-88
2022/08/05 14:34:25;;;;;;;;;;;32.30;61.80;;;;;;4940157;29;19987;-88
2022/08/05 14:36:50;;;;;;;;;;;32.10;61.00;;;;;;4939203;29;19926;-89
2022/08/05 14:39:16;;;;;;;;;;;31.90;60.20;;;;;;4922780;29;20294;-88
2022/08/05 14:41:41;;;;;;;;;;;31.80;59.80;;;;;;4939254;29;19921;-89
2022/08/05 14:44:07;;;;;;;;;;;31.60;60.60;;;;;;4940308;29;19997;-89
2022/08/05 14:46:32;;;;;;;;;;;31.40;60.90;;;;;;4939519;29;19915;-88
2022/08/05 14:48:59;;;;;;;;;;;31.20;61.30;;;;;;4923315;29;19931;-89
2022/08/05 14:51:24;;;;;;;;;;;31.20;59.60;;;;;;4939433;29;19922;-90
2022/08/05 14:53:50;;;;;;;;;;;31.20;60.90;;;;;;4940291;29;19919;-89
2022/08/05 14:56:15;;;;;;;;;;;31.30;60.70;;;;;;4945482;29;19925;-89
2022/08/05 14:58:41;;;;;;;;;;;31.30;60.80;;;;;;4959422;29;20013;-89
2022/08/05 15:01:06;;;;;;;;;;;31.20;57.00;;;;;;4957406;29;19964;-88
2022/08/05 15:03:32;;;;;;;;;;;31.10;56.00;;;;;;4942296;29;19917;-88
2022/08/05 15:06:00;;;;;;;;;;;30.90;56.40;;;;;;4959217;29;19958;-89
2022/08/05 15:08:26;;;;;;;;;;;30.90;57.20;;;;;;4959730;29;19929;-90
2022/08/05 15:10:51;;;;;;;;;;;30.80;56.20;;;;;;4943592;29;19918;-90
2022/08/05 15:13:17;;;;;;;;;;;30.90;57.20;;;;;;4959986;29;20270;-89
2022/08/05 15:15:42;;;;;;;;;;;31.00;59.10;;;;;;4973576;28;19976;-90
2022/08/05 15:18:08;;;;;;;;;;;31.20;59.20;;;;;;4923854;29;20574;-89
2022/08/05 15:20:35;;;;;;;;;;;31.30;58.70;;;;;;4940084;29;20017;-90
2022/08/05 15:23:04;;;;;;;;;;;31.30;57.50;;;;;;4958991;29;19946;-88
2022/08/05 15:25:30;;;;;;;;;;;31.50;58.50;;;;;;4941695;29;19921;-89
2022/08/05 15:27:55;;;;;;;;;;;31.50;58.10;;;;;;4959139;29;20001;-88
2022/08/05 15:30:21;;;;;;;;;;;31.50;57.90;;;;;;4957926;29;19923;-88
2022/08/05 15:32:46;;;;;;;;;;;31.40;57.60;;;;;;4925192;29;19918;-89
2022/08/05 15:35:12;;;;;;;;;;;31.40;57.90;;;;;;4923345;29;19929;-89
2022/08/05 15:37:37;;;;;;;;;;;31.40;57.30;;;;;;4955395;29;19922;-89
2022/08/05 15:40:03;;;;;;;;;;;31.40;58.00;;;;;;4959396;29;19915;-89
2022/08/05 15:42:28;;;;;;;;;;;31.40;57.40;;;;;;4927646;29;19918;-89
2022/08/05 15:44:54;;;;;;;;;;;31.40;56.60;;;;;;4940037;29;20323;-89
2022/08/05 15:47:22;;;;;;;;;;;31.50;56.60;;;;;;4940194;29;19941;-89
2022/08/05 15:49:49;;;;;;;;;;;31.50;54.00;;;;;;4922377;29;20352;-89
2022/08/05 15:52:14;;;;;;;;;;;31.40;53.80;;;;;;4923069;29;19919;-88
2022/08/05 15:54:39;;;;;;;;;;;31.40;54.60;;;;;;4939271;29;19985;-88
2022/08/05 15:57:05;;;;;;;;;;;31.40;54.20;;;;;;4950497;29;19945;-89
2022/08/05 15:59:30;;;;;;;;;;;31.40;53.70;;;;;;4940941;29;19914;-89
2022/08/05 16:01:56;;;;;;;;;;;31.30;53.70;;;;;;4948840;29;20350;-89
2022/08/05 16:04:21;;;;;;;;;;;31.30;53.70;;;;;;4921845;29;19944;-90
2022/08/05 16:06:47;;;;;;;;;;;31.20;53.70;;;;;;4930668;29;19911;-90
2022/08/05 16:09:12;;;;;;;;;;;31.20;52.60;;;;;;4958634;29;19914;-88
2022/08/05 16:11:38;;;;;;;;;;;31.10;51.30;;;;;;4949605;29;19910;-89
2022/08/05 16:14:04;;;;;;;;;;;30.90;50.80;;;;;;4938232;29;19914;-89
2022/08/05 16:16:30;;;;;;;;;;;30.80;49.50;;;;;;4927745;29;20009;-89
2022/08/05 16:18:56;;;;;;;;;;;30.50;40.20;;;;;;4940060;29;20347;-89
2022/08/05 16:21:22;;;;;;;;;;;30.30;40.80;;;;;;4940475;29;19914;-88
2022/08/05 16:23:47;;;;;;;;;;;30.20;43.20;;;;;;4940637;29;19915;-88
2022/08/05 16:26:12;;;;;;;;;;;30.20;41.70;;;;;;4935590;29;20383;-88
2022/08/05 16:28:38;;;;;;;;;;;30.10;38.20;;;;;;4953510;29;19910;-90